Weather at Brighton Downs Airport

Public forecast

Using degrees Celsius for public forecast. Weather courtesy of forecast.io.

Closest aviation weather report (METAR) to Brighton Downs Airport

Closest report is Longreach Airport, 149.8 nm (277.4 km) E. Retrieved 2021/01/19 14:00 UTC (42 minutes ago):

YLRE 191400Z AUTO 10005KT 9999 // NCD 27/14 Q1011

Closest aviation forecast (TAF) to Brighton Downs Airport

Forecast is more than 6 hours old.

Closest forecast is Mount Isa Airport, 199.0 nm (368.5 km) NW. Retrieved 2021/01/19 06:21 UTC (8 hours ago):

TAF TAF YBMA 190518Z 1906/1918 11010KT CAVOK PROB30 TEMPO 1906/1910 VRB20G35KT 2000 TSRA BKN020 SCT080CB